createdAt,value
2023-05-04T00:02:20.493Z,5.20
2023-05-04T00:04:53.651Z,4.48
2023-05-04T00:07:22.152Z,5.20
2023-05-04T00:09:51.458Z,5.04
2023-05-04T00:12:22.566Z,5.12
2023-05-04T00:14:53.132Z,5.09
2023-05-04T00:17:21.362Z,4.98
2023-05-04T00:19:54.617Z,5.07
2023-05-04T00:22:33.818Z,5.08
2023-05-04T00:25:05.244Z,5.11
2023-05-04T00:27:38.027Z,5.08
2023-05-04T00:30:09.872Z,5.11
2023-05-04T00:32:41.052Z,5.05
2023-05-04T00:35:10.889Z,5.10
2023-05-04T00:37:39.180Z,5.09
2023-05-04T00:40:09.927Z,4.89
2023-05-04T00:42:44.038Z,5.02
2023-05-04T00:45:13.718Z,4.98
2023-05-04T00:47:50.259Z,4.96
2023-05-04T00:50:23.172Z,4.88
2023-05-04T00:52:54.113Z,4.93
2023-05-04T00:55:25.140Z,4.86
2023-05-04T00:57:54.339Z,4.71
2023-05-04T01:00:25.828Z,4.80
2023-05-04T01:02:55.938Z,4.38
2023-05-04T01:05:32.050Z,4.63
2023-05-04T01:08:09.643Z,4.55
2023-05-04T01:10:49.382Z,4.66
2023-05-04T01:13:21.336Z,4.69
2023-05-04T01:15:51.420Z,4.39
2023-05-04T01:18:26.561Z,4.58
2023-05-04T01:20:54.792Z,4.69
2023-05-04T01:23:26.594Z,4.58
2023-05-04T01:26:03.896Z,4.54
2023-05-04T01:28:41.648Z,4.60
2023-05-04T01:31:17.128Z,4.50
2023-05-04T01:33:48.786Z,4.67
2023-05-04T01:36:23.868Z,4.56
2023-05-04T01:38:56.904Z,4.51
2023-05-04T01:41:25.161Z,4.53
2023-05-04T01:43:54.245Z,4.57
2023-05-04T01:46:28.534Z,4.60
2023-05-04T01:48:56.861Z,4.57
2023-05-04T01:51:25.085Z,4.54
2023-05-04T01:53:53.292Z,4.52
2023-05-04T01:56:24.346Z,4.46
2023-05-04T01:58:58.938Z,4.34
2023-05-04T02:01:28.681Z,4.38
2023-05-04T02:04:03.387Z,4.34
2023-05-04T02:06:36.234Z,4.31
2023-05-04T02:09:06.421Z,4.15
2023-05-04T02:11:37.345Z,4.25
2023-05-04T02:14:05.670Z,4.01
2023-05-04T02:16:36.018Z,4.19
2023-05-04T02:19:13.010Z,4.13
2023-05-04T02:21:43.825Z,4.07
2023-05-04T02:24:13.698Z,4.05
2023-05-04T02:26:43.260Z,4.00
2023-05-04T02:29:11.440Z,4.03
2023-05-04T02:31:40.612Z,3.90
2023-05-04T02:34:08.960Z,3.98
2023-05-04T02:36:42.625Z,3.99
2023-05-04T02:39:10.812Z,3.95
2023-05-04T02:41:38.983Z,3.97
2023-05-04T02:44:13.655Z,3.91
2023-05-04T02:46:41.786Z,3.70
2023-05-04T02:49:19.293Z,3.90
2023-05-04T02:51:47.792Z,3.85
2023-05-04T02:54:15.984Z,3.76
2023-05-04T02:56:46.647Z,3.70
2023-05-04T02:59:18.171Z,3.78
2023-05-04T03:01:46.516Z,3.77
2023-05-04T03:04:14.807Z,3.58
2023-05-04T03:06:42.963Z,3.72
2023-05-04T03:09:11.379Z,3.63
2023-05-04T03:11:39.502Z,3.72
2023-05-04T03:14:15.064Z,3.75
2023-05-04T03:16:51.529Z,3.75
2023-05-04T03:19:22.223Z,3.72
2023-05-04T03:21:58.236Z,3.49
2023-05-04T03:24:26.838Z,3.74
2023-05-04T03:26:55.213Z,3.69
2023-05-04T03:29:32.266Z,3.72
2023-05-04T03:32:10.482Z,3.60
2023-05-04T03:34:38.729Z,3.69
2023-05-04T03:37:08.044Z,3.72
2023-05-04T03:39:38.897Z,3.66
2023-05-04T03:42:11.427Z,3.70
2023-05-04T03:44:45.300Z,3.65
2023-05-04T03:47:18.679Z,3.67
2023-05-04T03:49:49.816Z,3.67
2023-05-04T03:52:26.574Z,3.54
2023-05-04T03:54:54.799Z,3.49
2023-05-04T03:57:24.266Z,3.60
2023-05-04T03:59:59.016Z,3.67
2023-05-04T04:02:31.737Z,3.68
2023-05-04T04:05:03.068Z,3.50
2023-05-04T04:07:33.131Z,3.61
2023-05-04T04:10:04.809Z,3.66
2023-05-04T04:12:33.262Z,3.61
2023-05-04T04:15:03.088Z,3.66
2023-05-04T04:17:31.490Z,3.55
2023-05-04T04:19:59.748Z,3.66
2023-05-04T04:22:27.957Z,3.66
2023-05-04T04:25:01.498Z,3.66
2023-05-04T04:27:32.717Z,3.71
2023-05-04T04:30:02.713Z,3.72
2023-05-04T04:32:31.510Z,3.43
2023-05-04T04:35:02.683Z,3.72
2023-05-04T04:37:48.945Z,3.71
2023-05-04T04:40:17.690Z,3.73
2023-05-04T04:42:51.291Z,3.66
2023-05-04T04:45:24.100Z,3.91
2023-05-04T04:47:56.669Z,3.99
2023-05-04T04:50:29.842Z,4.03
2023-05-04T04:53:00.988Z,4.08
2023-05-04T04:55:31.939Z,4.11
2023-05-04T04:58:00.346Z,4.16
2023-05-04T05:00:32.940Z,4.16
2023-05-04T05:03:04.585Z,4.28
2023-05-04T05:05:40.967Z,4.28
2023-05-04T05:08:09.163Z,4.35
2023-05-04T05:10:37.458Z,4.58
2023-05-04T05:13:05.883Z,4.69
2023-05-04T05:15:35.489Z,4.62
2023-05-04T05:18:05.254Z,4.97
2023-05-04T05:20:35.054Z,5.09
2023-05-04T05:23:08.030Z,5.24
2023-05-04T05:25:37.143Z,5.25
2023-05-04T05:28:07.593Z,5.37
2023-05-04T05:30:40.682Z,5.39
2023-05-04T05:33:11.751Z,5.49
2023-05-04T05:35:43.480Z,5.77
2023-05-04T05:38:16.146Z,5.91
2023-05-04T05:40:52.277Z,6.02
2023-05-04T05:43:21.902Z,6.00
2023-05-04T05:45:51.450Z,6.02
2023-05-04T05:48:20.056Z,6.11
2023-05-04T05:50:48.608Z,6.29
2023-05-04T05:53:16.920Z,6.36
2023-05-04T05:55:45.097Z,6.46
2023-05-04T05:58:16.898Z,6.53
2023-05-04T06:00:48.354Z,6.60
2023-05-04T06:03:19.410Z,6.71
2023-05-04T06:05:47.736Z,6.74
2023-05-04T06:08:15.901Z,6.97
2023-05-04T06:10:44.152Z,6.98
2023-05-04T06:13:12.309Z,7.22
2023-05-04T06:15:42.478Z,7.27
2023-05-04T06:18:17.822Z,7.39
2023-05-04T06:20:50.115Z,7.37
2023-05-04T06:23:18.470Z,7.37
2023-05-04T06:25:46.696Z,7.40
2023-05-04T06:28:15.037Z,7.64
2023-05-04T06:30:46.071Z,7.79
2023-05-04T06:33:14.268Z,7.86
2023-05-04T06:35:42.824Z,7.91
2023-05-04T06:38:12.563Z,7.86
2023-05-04T06:40:44.881Z,8.19
2023-05-04T06:43:30.101Z,8.29
2023-05-04T06:46:03.605Z,8.52
2023-05-04T06:48:35.272Z,8.72
2023-05-04T06:51:03.567Z,8.85
2023-05-04T06:53:36.156Z,9.01
2023-05-04T06:56:04.374Z,9.25
2023-05-04T06:58:32.625Z,9.40
2023-05-04T07:01:03.807Z,9.68
2023-05-04T07:03:32.616Z,9.89
2023-05-04T07:06:00.914Z,10.06
2023-05-04T07:08:29.171Z,10.28
2023-05-04T07:11:13.014Z,10.33
2023-05-04T07:13:46.019Z,10.70
2023-05-04T07:16:15.284Z,10.91
2023-05-04T07:18:44.833Z,11.10
2023-05-04T07:21:26.851Z,11.04
2023-05-04T07:24:00.143Z,11.47
2023-05-04T07:26:29.745Z,11.59
2023-05-04T07:28:59.319Z,11.77
2023-05-04T07:31:30.071Z,11.82
2023-05-04T07:33:58.765Z,11.89
2023-05-04T07:36:29.172Z,11.95
2023-05-04T07:39:00.420Z,12.08
2023-05-04T07:41:30.376Z,12.26
2023-05-04T07:43:58.638Z,12.43
2023-05-04T07:46:27.032Z,12.49
2023-05-04T07:48:57.114Z,12.71
2023-05-04T07:51:32.038Z,12.77
2023-05-04T07:54:06.145Z,12.94
2023-05-04T07:56:36.718Z,13.03
2023-05-04T07:59:05.003Z,13.42
2023-05-04T08:01:33.286Z,13.88
2023-05-04T08:04:01.472Z,14.36
2023-05-04T08:06:37.300Z,14.73
2023-05-04T08:09:05.516Z,15.07
2023-05-04T08:11:37.611Z,15.47
2023-05-04T08:14:08.203Z,15.61
2023-05-04T08:16:36.792Z,16.01
2023-05-04T08:19:07.701Z,16.03
2023-05-04T08:21:35.892Z,16.52
2023-05-04T08:24:04.389Z,16.88
2023-05-04T08:26:32.600Z,17.15
2023-05-04T08:29:10.594Z,17.52
2023-05-04T08:31:41.203Z,17.87
2023-05-04T08:34:09.426Z,17.91
2023-05-04T08:36:42.152Z,18.17
2023-05-04T08:39:13.326Z,18.14
2023-05-04T08:41:42.002Z,18.26
2023-05-04T08:44:12.959Z,18.28
2023-05-04T08:46:42.377Z,18.46
2023-05-04T08:49:13.396Z,18.76
2023-05-04T08:51:46.689Z,18.90
2023-05-04T08:54:15.443Z,19.06
2023-05-04T08:56:46.559Z,19.22
2023-05-04T08:59:31.635Z,19.18
2023-05-04T09:02:02.163Z,19.24
2023-05-04T09:04:32.167Z,19.31
2023-05-04T09:07:03.621Z,19.31
2023-05-04T09:09:32.383Z,19.49
2023-05-04T09:12:02.659Z,19.43
2023-05-04T09:14:41.872Z,19.64
2023-05-04T09:17:25.929Z,19.58
2023-05-04T09:20:01.495Z,19.77
2023-05-04T09:22:30.912Z,19.91
2023-05-04T09:25:11.697Z,20.18
2023-05-04T09:27:41.779Z,20.39
2023-05-04T09:30:14.648Z,20.49
2023-05-04T09:32:47.321Z,20.55
2023-05-04T09:35:32.022Z,20.66
2023-05-04T09:38:01.538Z,20.78
2023-05-04T09:40:33.896Z,20.85
2023-05-04T09:43:02.621Z,20.81
2023-05-04T09:45:42.817Z,21.02
2023-05-04T09:48:21.870Z,21.19
2023-05-04T09:50:54.944Z,21.13
2023-05-04T09:53:25.209Z,21.11
2023-05-04T09:56:12.561Z,21.11
2023-05-04T09:58:41.328Z,21.08
2023-05-04T10:01:11.645Z,21.11
2023-05-04T10:03:41.138Z,21.37
2023-05-04T10:06:13.058Z,21.37
2023-05-04T10:08:42.153Z,21.32
2023-05-04T10:11:10.558Z,21.29
2023-05-04T10:13:38.900Z,21.51
2023-05-04T10:16:34.749Z,21.50
2023-05-04T10:19:44.993Z,21.65
2023-05-04T10:22:28.670Z,21.90
2023-05-04T10:25:34.769Z,21.83
2023-05-04T10:28:14.392Z,22.01
2023-05-04T10:30:42.709Z,21.95
2023-05-04T10:33:13.293Z,22.03
2023-05-04T10:35:53.093Z,22.07
2023-05-04T10:38:33.539Z,22.16
2023-05-04T10:41:04.637Z,22.23
2023-05-04T10:43:33.322Z,22.25
2023-05-04T10:46:02.460Z,22.20
2023-05-04T10:48:39.750Z,22.18
2023-05-04T10:51:19.832Z,22.05
2023-05-04T10:53:49.758Z,22.25
2023-05-04T10:56:26.719Z,22.05
2023-05-04T10:58:55.909Z,22.26
2023-05-04T11:01:24.357Z,22.40
2023-05-04T11:03:55.325Z,21.40
2023-05-04T11:06:25.393Z,21.43
2023-05-04T11:09:06.311Z,21.73
2023-05-04T11:11:42.151Z,21.86
2023-05-04T11:14:11.515Z,22.09
2023-05-04T11:16:39.967Z,22.28
2023-05-04T11:19:12.616Z,22.53
2023-05-04T11:21:49.372Z,22.77
2023-05-04T11:24:21.165Z,22.93
2023-05-04T11:26:52.699Z,22.80
2023-05-04T11:29:22.793Z,23.19
2023-05-04T11:31:57.279Z,23.21
2023-05-04T11:34:29.344Z,23.38
2023-05-04T11:36:57.632Z,23.53
2023-05-04T11:39:32.666Z,23.73
2023-05-04T11:42:03.089Z,23.79
2023-05-04T11:44:31.463Z,23.86
2023-05-04T11:46:59.696Z,23.91
2023-05-04T11:49:31.140Z,23.69
2023-05-04T11:52:07.908Z,23.60
2023-05-04T11:54:36.985Z,23.44
2023-05-04T11:57:05.794Z,23.92
2023-05-04T11:59:34.015Z,24.11
2023-05-04T12:02:07.108Z,24.01
2023-05-04T12:04:37.997Z,24.30
2023-05-04T12:07:08.893Z,24.50
2023-05-04T12:09:46.413Z,24.58
2023-05-04T12:12:16.108Z,24.88
2023-05-04T12:14:55.312Z,24.68
2023-05-04T12:17:24.216Z,24.77
2023-05-04T12:19:56.035Z,24.45
2023-05-04T12:22:32.901Z,24.71
2023-05-04T12:25:05.105Z,24.83
2023-05-04T12:27:35.250Z,24.80
2023-05-04T12:30:03.477Z,25.06
2023-05-04T12:32:33.819Z,24.73
2023-05-04T12:35:04.335Z,25.16
2023-05-04T12:37:32.738Z,25.19
2023-05-04T12:40:01.067Z,25.08
2023-05-04T12:42:29.761Z,25.25
2023-05-04T12:45:00.616Z,25.34
2023-05-04T12:47:28.931Z,25.28
2023-05-04T12:50:05.271Z,25.28
2023-05-04T12:52:34.765Z,25.32
2023-05-04T12:55:06.096Z,25.23
2023-05-04T12:57:34.838Z,25.38
2023-05-04T13:00:04.412Z,25.26
2023-05-04T13:02:33.063Z,25.66
2023-05-04T13:05:01.552Z,25.75
2023-05-04T13:07:29.777Z,25.54
2023-05-04T13:10:00.146Z,25.91
2023-05-04T13:12:28.476Z,25.88
2023-05-04T13:14:58.111Z,26.18
2023-05-04T13:17:26.787Z,26.24
2023-05-04T13:19:54.979Z,26.44
2023-05-04T13:22:23.229Z,26.37
2023-05-04T13:24:51.385Z,26.33
2023-05-04T13:27:20.939Z,26.18
2023-05-04T13:29:49.118Z,26.39
2023-05-04T13:32:17.435Z,26.39
2023-05-04T13:34:45.727Z,26.43
2023-05-04T13:37:18.430Z,26.37
2023-05-04T13:39:46.987Z,26.20
2023-05-04T13:42:15.486Z,26.20
2023-05-04T13:44:45.758Z,26.29
2023-05-04T13:47:16.589Z,26.23
2023-05-04T13:49:44.908Z,26.05
2023-05-04T13:52:13.610Z,25.89
2023-05-04T13:54:42.349Z,26.00
2023-05-04T13:57:10.560Z,25.93
2023-05-04T13:59:38.673Z,25.60
2023-05-04T14:02:08.989Z,25.71
2023-05-04T14:04:39.343Z,26.00
2023-05-04T14:07:09.176Z,26.26
2023-05-04T14:09:37.674Z,26.22
2023-05-04T14:12:06.790Z,25.95
2023-05-04T14:14:35.109Z,25.75
2023-05-04T14:17:03.363Z,25.75
2023-05-04T14:19:32.937Z,25.82
2023-05-04T14:22:02.675Z,25.78
2023-05-04T14:24:31.655Z,25.75
2023-05-04T14:26:59.819Z,26.01
2023-05-04T14:29:28.458Z,26.22
2023-05-04T14:31:56.776Z,26.48
2023-05-04T14:34:27.377Z,26.75
2023-05-04T14:36:57.129Z,27.01
2023-05-04T14:39:27.645Z,27.07
2023-05-04T14:41:57.147Z,27.11
2023-05-04T14:44:27.214Z,27.11
2023-05-04T14:46:56.413Z,27.18
2023-05-04T14:49:35.940Z,27.18
2023-05-04T14:52:07.614Z,27.00
2023-05-04T14:54:36.002Z,26.81
2023-05-04T14:57:04.649Z,26.85
2023-05-04T14:59:32.774Z,26.92
2023-05-04T15:02:01.071Z,26.95
2023-05-04T15:04:29.327Z,26.99
2023-05-04T15:06:57.827Z,26.88
2023-05-04T15:09:27.576Z,26.77
2023-05-04T15:11:55.819Z,26.59
2023-05-04T15:14:28.353Z,26.53
2023-05-04T15:16:56.581Z,26.31
2023-05-04T15:19:30.780Z,26.33
2023-05-04T15:21:59.475Z,26.28
2023-05-04T15:24:29.091Z,26.15
2023-05-04T15:27:01.684Z,26.32
2023-05-04T15:29:34.853Z,26.00
2023-05-04T15:32:05.650Z,26.05
2023-05-04T15:34:36.821Z,26.06
2023-05-04T15:37:06.855Z,26.01
2023-05-04T15:39:36.561Z,25.76
2023-05-04T15:42:07.553Z,25.77
2023-05-04T15:44:41.012Z,25.80
2023-05-04T15:47:13.385Z,25.76
2023-05-04T15:49:44.856Z,25.64
2023-05-04T15:52:13.028Z,25.80
2023-05-04T15:54:42.548Z,25.88
2023-05-04T15:57:16.136Z,26.25
2023-05-04T15:59:44.316Z,26.41
2023-05-04T16:02:12.509Z,26.31
2023-05-04T16:04:40.842Z,26.64
2023-05-04T16:07:10.926Z,26.50
2023-05-04T16:09:39.200Z,26.63
2023-05-04T16:12:14.241Z,26.43
2023-05-04T16:14:42.706Z,26.29
2023-05-04T16:17:13.681Z,25.90
2023-05-04T16:19:41.833Z,25.41
2023-05-04T16:22:19.239Z,25.34
2023-05-04T16:24:47.670Z,25.11
2023-05-04T16:27:26.852Z,25.11
2023-05-04T16:30:00.045Z,25.21
2023-05-04T16:32:31.075Z,25.25
2023-05-04T16:35:00.799Z,25.16
2023-05-04T16:37:29.136Z,25.27
2023-05-04T16:39:57.452Z,25.35
2023-05-04T16:42:27.282Z,25.10
2023-05-04T16:44:58.252Z,25.17
2023-05-04T16:47:26.588Z,25.04
2023-05-04T16:49:54.771Z,24.95
2023-05-04T16:52:25.502Z,24.85
2023-05-04T16:54:53.860Z,24.71
2023-05-04T16:57:24.271Z,24.15
2023-05-04T16:59:57.009Z,23.95
2023-05-04T17:02:25.817Z,23.97
2023-05-04T17:04:57.485Z,23.73
2023-05-04T17:07:31.407Z,23.79
2023-05-04T17:10:02.754Z,23.79
2023-05-04T17:12:31.532Z,23.77
2023-05-04T17:15:06.988Z,23.63
2023-05-04T17:17:35.335Z,23.23
2023-05-04T17:20:03.680Z,23.23
2023-05-04T17:22:31.916Z,22.91
2023-05-04T17:25:00.183Z,22.54
2023-05-04T17:27:31.652Z,22.46
2023-05-04T17:30:01.268Z,22.39
2023-05-04T17:32:32.095Z,22.19
2023-05-04T17:35:15.888Z,22.20
2023-05-04T17:37:51.453Z,22.25
2023-05-04T17:40:19.825Z,22.13
2023-05-04T17:42:49.081Z,22.27
2023-05-04T17:45:21.550Z,22.24
2023-05-04T17:47:55.159Z,22.29
2023-05-04T17:50:24.675Z,22.17
2023-05-04T17:52:55.252Z,22.27
2023-05-04T17:55:24.898Z,22.25
2023-05-04T17:57:54.533Z,22.02
2023-05-04T18:00:27.952Z,22.05
2023-05-04T18:02:56.375Z,22.05
2023-05-04T18:05:27.909Z,21.92
2023-05-04T18:08:12.079Z,21.67
2023-05-04T18:10:41.285Z,21.43
2023-05-04T18:13:09.516Z,21.39
2023-05-04T18:15:44.408Z,21.19
2023-05-04T18:18:28.198Z,21.05
2023-05-04T18:21:01.293Z,20.90
2023-05-04T18:23:32.287Z,20.78
2023-05-04T18:26:03.605Z,20.50
2023-05-04T18:28:35.783Z,20.32
2023-05-04T18:31:05.768Z,20.39
2023-05-04T18:33:40.617Z,20.25
2023-05-04T18:36:09.305Z,19.85
2023-05-04T18:38:41.018Z,19.77
2023-05-04T18:41:10.503Z,19.72
2023-05-04T18:43:46.034Z,19.46
2023-05-04T18:46:18.796Z,19.41
2023-05-04T18:48:52.705Z,19.24
2023-05-04T18:51:30.755Z,19.13
2023-05-04T18:53:58.995Z,18.82
2023-05-04T18:56:30.033Z,18.70
2023-05-04T18:58:58.193Z,18.33
2023-05-04T19:01:29.080Z,18.49
2023-05-04T19:04:06.466Z,18.24
2023-05-04T19:06:35.665Z,18.12
2023-05-04T19:09:08.150Z,18.10
2023-05-04T19:11:36.669Z,17.90
2023-05-04T19:14:04.808Z,17.72
2023-05-04T19:16:34.369Z,17.46
2023-05-04T19:19:02.559Z,17.36
2023-05-04T19:21:30.891Z,17.21
2023-05-04T19:23:59.001Z,17.07
2023-05-04T19:26:27.376Z,16.93
2023-05-04T19:28:55.650Z,16.72
2023-05-04T19:31:23.991Z,16.66
2023-05-04T19:33:53.761Z,16.29
2023-05-04T19:36:21.903Z,16.26
2023-05-04T19:38:50.129Z,16.40
2023-05-04T19:41:18.819Z,16.29
2023-05-04T19:43:46.968Z,16.20
2023-05-04T19:46:15.253Z,16.22
2023-05-04T19:48:43.721Z,16.16
2023-05-04T19:51:14.053Z,16.15
2023-05-04T19:53:42.261Z,16.07
2023-05-04T19:56:10.405Z,16.11
2023-05-04T19:58:38.659Z,16.18
2023-05-04T20:01:06.912Z,16.22
2023-05-04T20:03:35.483Z,16.21
2023-05-04T20:06:04.518Z,16.16
2023-05-04T20:08:34.170Z,16.14
2023-05-04T20:11:02.372Z,16.12
2023-05-04T20:13:30.611Z,15.75
2023-05-04T20:15:58.753Z,15.85
2023-05-04T20:18:26.911Z,15.79
2023-05-04T20:20:55.090Z,15.58
2023-05-04T20:23:23.690Z,15.77
2023-05-04T20:25:53.641Z,15.67
2023-05-04T20:28:23.076Z,15.64
2023-05-04T20:30:51.277Z,15.52
2023-05-04T20:33:25.428Z,15.40
2023-05-04T20:35:53.602Z,15.22
2023-05-04T20:38:21.762Z,15.28
2023-05-04T20:40:52.015Z,15.16
2023-05-04T20:43:25.455Z,14.90
2023-05-04T20:45:53.608Z,14.85
2023-05-04T20:48:21.860Z,14.69
2023-05-04T20:50:51.548Z,14.41
2023-05-04T20:53:21.415Z,14.47
2023-05-04T20:55:49.610Z,14.37
2023-05-04T20:58:20.215Z,14.13
2023-05-04T21:00:51.746Z,14.19
2023-05-04T21:03:20.172Z,14.06
2023-05-04T21:05:48.654Z,14.00
2023-05-04T21:08:16.818Z,13.94
2023-05-04T21:10:44.989Z,13.87
2023-05-04T21:13:13.269Z,13.67
2023-05-04T21:15:44.814Z,13.91
2023-05-04T21:18:14.610Z,13.95
2023-05-04T21:20:42.830Z,14.04
2023-05-04T21:23:11.985Z,13.62
2023-05-04T21:25:40.271Z,13.98
2023-05-04T21:28:08.532Z,13.86
2023-05-04T21:30:41.325Z,13.95
2023-05-04T21:33:09.504Z,13.94
2023-05-04T21:35:41.283Z,14.00
2023-05-04T21:38:09.541Z,14.04
2023-05-04T21:40:37.677Z,13.67
2023-05-04T21:43:05.912Z,14.01
2023-05-04T21:45:34.432Z,13.97
2023-05-04T21:48:03.761Z,14.02
2023-05-04T21:50:32.023Z,13.82
2023-05-04T21:53:01.634Z,13.97
2023-05-04T21:55:30.681Z,14.09
2023-05-04T21:57:58.935Z,13.69
2023-05-04T22:00:27.698Z,13.71
2023-05-04T22:02:56.099Z,13.97
2023-05-04T22:05:24.851Z,14.08
2023-05-04T22:07:53.120Z,14.03
2023-05-04T22:10:23.376Z,14.17
2023-05-04T22:12:53.513Z,14.19
2023-05-04T22:15:29.629Z,14.29
2023-05-04T22:18:07.605Z,14.33
2023-05-04T22:20:44.180Z,14.33
2023-05-04T22:23:12.988Z,14.12
2023-05-04T22:25:42.699Z,14.33
2023-05-04T22:28:11.501Z,13.87
2023-05-04T22:30:40.726Z,13.99
2023-05-04T22:33:09.176Z,14.33
2023-05-04T22:35:37.603Z,14.08
2023-05-04T22:38:06.152Z,14.23
2023-05-04T22:40:40.001Z,14.22
2023-05-04T22:43:12.989Z,13.86
2023-05-04T22:45:42.016Z,14.17
2023-05-04T22:48:10.378Z,14.20
2023-05-04T22:50:39.157Z,14.12
2023-05-04T22:53:07.824Z,14.07
2023-05-04T22:55:36.297Z,13.99
2023-05-04T22:58:04.706Z,13.95
2023-05-04T23:00:34.508Z,14.03
2023-05-04T23:03:06.131Z,13.89
2023-05-04T23:05:34.538Z,13.81
2023-05-04T23:08:03.820Z,13.91
2023-05-04T23:10:32.174Z,13.75
2023-05-04T23:13:00.429Z,13.91
2023-05-04T23:15:29.014Z,13.35
2023-05-04T23:17:58.642Z,14.12
2023-05-04T23:20:26.853Z,14.22
2023-05-04T23:22:55.149Z,14.29
2023-05-04T23:25:23.574Z,14.15
2023-05-04T23:27:51.863Z,14.04
2023-05-04T23:30:20.365Z,14.05
2023-05-04T23:32:48.622Z,13.91
2023-05-04T23:35:18.455Z,14.22
2023-05-04T23:37:46.592Z,14.04
2023-05-04T23:40:14.978Z,13.66
2023-05-04T23:42:44.532Z,13.83
2023-05-04T23:45:14.396Z,13.53
2023-05-04T23:47:42.522Z,13.53
2023-05-04T23:50:12.679Z,13.20
2023-05-04T23:52:42.179Z,13.03
2023-05-04T23:55:11.318Z,12.95
2023-05-04T23:57:46.532Z,12.73
